sensor_id;sensor_type;location;lat;lon;timestamp;P1;P2;P0
72307;PMS5003;60257;42.638;23.376;2022-12-10T00:01:41;42.00;36.00;22.33
72307;PMS5003;60257;42.638;23.376;2022-12-10T00:04:08;25.67;15.33;2.00
72307;PMS5003;60257;42.638;23.376;2022-12-10T00:06:35;42.00;37.33;21.33
72307;PMS5003;60257;42.638;23.376;2022-12-10T00:09:03;44.00;37.33;24.00
72307;PMS5003;60257;42.638;23.376;2022-12-10T00:11:30;36.67;33.00;21.67
72307;PMS5003;60257;42.638;23.376;2022-12-10T00:13:56;35.00;33.00;23.00
72307;PMS5003;60257;42.638;23.376;2022-12-10T00:16:23;40.00;35.00;21.33
72307;PMS5003;60257;42.638;23.376;2022-12-10T00:18:50;40.00;31.67;16.33
72307;PMS5003;60257;42.638;23.376;2022-12-10T00:21:20;37.00;32.00;17.00
72307;PMS5003;60257;42.638;23.376;2022-12-10T00:23:48;26.67;25.00;11.33
72307;PMS5003;60257;42.638;23.376;2022-12-10T00:26:18;30.33;25.67;13.67
72307;PMS5003;60257;42.638;23.376;2022-12-10T00:28:47;36.67;32.67;17.67
72307;PMS5003;60257;42.638;23.376;2022-12-10T00:31:15;35.00;30.67;18.00
72307;PMS5003;60257;42.638;23.376;2022-12-10T00:33:43;33.67;31.33;17.67
72307;PMS5003;60257;42.638;23.376;2022-12-10T00:36:16;34.33;33.33;19.67
72307;PMS5003;60257;42.638;23.376;2022-12-10T00:38:45;30.67;29.00;19.67
72307;PMS5003;60257;42.638;23.376;2022-12-10T00:41:12;34.00;30.67;20.00
72307;PMS5003;60257;42.638;23.376;2022-12-10T00:43:38;36.67;30.33;19.00
72307;PMS5003;60257;42.638;23.376;2022-12-10T00:46:04;29.67;29.00;19.67
72307;PMS5003;60257;42.638;23.376;2022-12-10T00:48:30;29.00;25.67;18.00
72307;PMS5003;60257;42.638;23.376;2022-12-10T00:50:57;31.67;31.67;17.33
72307;PMS5003;60257;42.638;23.376;2022-12-10T00:53:28;30.00;29.67;18.33
72307;PMS5003;60257;42.638;23.376;2022-12-10T00:55:55;31.67;27.33;14.00
72307;PMS5003;60257;42.638;23.376;2022-12-10T00:58:21;34.67;24.33;14.67
72307;PMS5003;60257;42.638;23.376;2022-12-10T01:00:47;32.33;31.67;18.33
72307;PMS5003;60257;42.638;23.376;2022-12-10T01:03:13;35.00;33.33;20.00
72307;PMS5003;60257;42.638;23.376;2022-12-10T01:05:38;41.33;36.00;22.67
72307;PMS5003;60257;42.638;23.376;2022-12-10T01:08:04;37.33;35.67;20.00
72307;PMS5003;60257;42.638;23.376;2022-12-10T01:10:30;37.00;34.00;21.33
72307;PMS5003;60257;42.638;23.376;2022-12-10T01:12:55;33.33;32.33;19.33
72307;PMS5003;60257;42.638;23.376;2022-12-10T01:15:21;35.00;33.33;16.00
72307;PMS5003;60257;42.638;23.376;2022-12-10T01:17:46;42.00;32.00;21.00
72307;PMS5003;60257;42.638;23.376;2022-12-10T01:20:12;34.33;34.33;20.00
72307;PMS5003;60257;42.638;23.376;2022-12-10T01:22:37;39.00;37.67;23.00
72307;PMS5003;60257;42.638;23.376;2022-12-10T01:25:03;34.00;31.67;18.33
72307;PMS5003;60257;42.638;23.376;2022-12-10T01:27:29;36.00;31.67;18.00
72307;PMS5003;60257;42.638;23.376;2022-12-10T01:29:54;30.00;28.00;14.00
72307;PMS5003;60257;42.638;23.376;2022-12-10T01:32:20;32.00;30.67;16.67
72307;PMS5003;60257;42.638;23.376;2022-12-10T01:34:46;30.67;27.00;16.67
72307;PMS5003;60257;42.638;23.376;2022-12-10T01:37:11;29.00;23.67;13.00
72307;PMS5003;60257;42.638;23.376;2022-12-10T01:39:37;32.67;27.33;15.67
72307;PMS5003;60257;42.638;23.376;2022-12-10T01:42:03;30.00;27.67;17.67
72307;PMS5003;60257;42.638;23.376;2022-12-10T01:46:55;28.33;26.33;16.00
72307;PMS5003;60257;42.638;23.376;2022-12-10T01:49:23;27.33;26.00;14.33
72307;PMS5003;60257;42.638;23.376;2022-12-10T01:51:59;18.33;17.00;13.00
72307;PMS5003;60257;42.638;23.376;2022-12-10T01:54:28;13.67;13.67;8.00
72307;PMS5003;60257;42.638;23.376;2022-12-10T01:57:02;22.00;20.67;14.00
72307;PMS5003;60257;42.638;23.376;2022-12-10T01:59:31;28.67;25.67;13.00
72307;PMS5003;60257;42.638;23.376;2022-12-10T02:13:12;27.00;25.33;15.00
72307;PMS5003;60257;42.638;23.376;2022-12-10T02:15:41;23.00;20.67;11.67
72307;PMS5003;60257;42.638;23.376;2022-12-10T02:18:15;24.00;18.67;11.67
72307;PMS5003;60257;42.638;23.376;2022-12-10T02:20:48;27.33;27.33;15.00
72307;PMS5003;60257;42.638;23.376;2022-12-10T02:26:15;34.67;26.67;15.67
72307;PMS5003;60257;42.638;23.376;2022-12-10T02:28:52;28.33;25.00;16.00
72307;PMS5003;60257;42.638;23.376;2022-12-10T02:31:40;25.67;25.67;18.00
72307;PMS5003;60257;42.638;23.376;2022-12-10T02:34:10;28.67;26.00;16.00
72307;PMS5003;60257;42.638;23.376;2022-12-10T02:36:37;30.33;28.67;16.33
72307;PMS5003;60257;42.638;23.376;2022-12-10T02:39:07;32.33;28.00;19.00
72307;PMS5003;60257;42.638;23.376;2022-12-10T02:41:37;26.00;25.33;14.00
72307;PMS5003;60257;42.638;23.376;2022-12-10T02:44:09;35.33;26.00;16.00
72307;PMS5003;60257;42.638;23.376;2022-12-10T02:46:37;26.67;23.00;12.33
72307;PMS5003;60257;42.638;23.376;2022-12-10T02:49:06;36.67;29.00;16.33
72307;PMS5003;60257;42.638;23.376;2022-12-10T02:51:33;29.67;26.00;15.33
72307;PMS5003;60257;42.638;23.376;2022-12-10T02:54:03;20.67;20.67;12.33
72307;PMS5003;60257;42.638;23.376;2022-12-10T02:56:33;14.00;14.00;8.00
72307;PMS5003;60257;42.638;23.376;2022-12-10T02:59:04;16.67;11.67;7.00
72307;PMS5003;60257;42.638;23.376;2022-12-10T03:02:02;8.33;7.67;4.67
72307;PMS5003;60257;42.638;23.376;2022-12-10T03:10:24;20.33;19.67;13.00
72307;PMS5003;60257;42.638;23.376;2022-12-10T03:13:02;22.33;19.33;11.33
72307;PMS5003;60257;42.638;23.376;2022-12-10T03:15:33;16.67;15.33;8.00
72307;PMS5003;60257;42.638;23.376;2022-12-10T03:18:03;9.00;9.00;4.00
72307;PMS5003;60257;42.638;23.376;2022-12-10T03:20:32;6.67;6.00;3.00
72307;PMS5003;60257;42.638;23.376;2022-12-10T03:22:59;16.00;16.00;9.00
72307;PMS5003;60257;42.638;23.376;2022-12-10T03:25:27;19.00;18.00;11.33
72307;PMS5003;60257;42.638;23.376;2022-12-10T03:27:56;16.67;15.33;9.67
72307;PMS5003;60257;42.638;23.376;2022-12-10T03:30:24;25.00;21.67;12.33
72307;PMS5003;60257;42.638;23.376;2022-12-10T03:32:50;17.33;17.33;10.67
72307;PMS5003;60257;42.638;23.376;2022-12-10T03:35:17;19.00;18.67;11.67
72307;PMS5003;60257;42.638;23.376;2022-12-10T03:37:45;22.00;20.67;11.33
72307;PMS5003;60257;42.638;23.376;2022-12-10T03:40:12;25.00;19.00;10.33
72307;PMS5003;60257;42.638;23.376;2022-12-10T03:42:39;19.67;18.00;11.00
72307;PMS5003;60257;42.638;23.376;2022-12-10T03:45:05;18.67;18.00;9.00
72307;PMS5003;60257;42.638;23.376;2022-12-10T03:47:30;22.33;17.67;12.00
72307;PMS5003;60257;42.638;23.376;2022-12-10T03:49:56;21.67;21.67;11.00
72307;PMS5003;60257;42.638;23.376;2022-12-10T03:52:22;16.33;16.33;10.00
72307;PMS5003;60257;42.638;23.376;2022-12-10T03:54:47;23.33;18.00;10.33
72307;PMS5003;60257;42.638;23.376;2022-12-10T03:57:13;18.67;18.33;10.00
72307;PMS5003;60257;42.638;23.376;2022-12-10T03:59:38;19.33;18.33;10.67
72307;PMS5003;60257;42.638;23.376;2022-12-10T04:02:04;19.00;14.33;7.67
72307;PMS5003;60257;42.638;23.376;2022-12-10T04:04:29;24.00;19.33;9.67
72307;PMS5003;60257;42.638;23.376;2022-12-10T04:06:55;18.67;18.00;9.33
72307;PMS5003;60257;42.638;23.376;2022-12-10T04:09:20;21.00;17.00;10.00
72307;PMS5003;60257;42.638;23.376;2022-12-10T04:11:46;14.00;14.00;7.00
72307;PMS5003;60257;42.638;23.376;2022-12-10T04:14:12;16.33;15.00;9.33
72307;PMS5003;60257;42.638;23.376;2022-12-10T04:16:56;20.33;17.67;8.67
72307;PMS5003;60257;42.638;23.376;2022-12-10T04:19:22;14.33;11.33;7.67
72307;PMS5003;60257;42.638;23.376;2022-12-10T04:21:47;10.33;10.33;6.67
72307;PMS5003;60257;42.638;23.376;2022-12-10T04:24:32;14.33;13.00;7.33
72307;PMS5003;60257;42.638;23.376;2022-12-10T04:27:20;20.67;18.33;9.00
72307;PMS5003;60257;42.638;23.376;2022-12-10T04:29:49;19.67;17.67;10.00
72307;PMS5003;60257;42.638;23.376;2022-12-10T04:32:15;12.00;12.00;8.00
72307;PMS5003;60257;42.638;23.376;2022-12-10T04:34:41;17.67;16.00;9.00
72307;PMS5003;60257;42.638;23.376;2022-12-10T04:37:06;15.67;15.67;9.33
72307;PMS5003;60257;42.638;23.376;2022-12-10T04:39:32;19.00;17.00;10.00
72307;PMS5003;60257;42.638;23.376;2022-12-10T04:41:58;36.00;32.00;18.33
72307;PMS5003;60257;42.638;23.376;2022-12-10T04:44:25;28.00;22.67;13.00
72307;PMS5003;60257;42.638;23.376;2022-12-10T04:46:50;15.33;15.33;10.00
72307;PMS5003;60257;42.638;23.376;2022-12-10T04:49:16;21.00;20.67;12.67
72307;PMS5003;60257;42.638;23.376;2022-12-10T04:51:42;18.00;16.67;8.00
72307;PMS5003;60257;42.638;23.376;2022-12-10T04:54:08;20.00;18.00;10.00
72307;PMS5003;60257;42.638;23.376;2022-12-10T04:56:34;15.33;15.33;10.33
72307;PMS5003;60257;42.638;23.376;2022-12-10T04:59:00;22.00;21.33;12.67
72307;PMS5003;60257;42.638;23.376;2022-12-10T05:01:27;18.33;16.00;11.00
72307;PMS5003;60257;42.638;23.376;2022-12-10T05:03:53;25.00;22.33;12.67
72307;PMS5003;60257;42.638;23.376;2022-12-10T05:06:19;25.33;22.67;12.67
72307;PMS5003;60257;42.638;23.376;2022-12-10T05:08:45;15.33;15.00;8.33
72307;PMS5003;60257;42.638;23.376;2022-12-10T05:11:16;23.00;23.00;11.67
72307;PMS5003;60257;42.638;23.376;2022-12-10T05:13:43;20.33;19.67;13.00
72307;PMS5003;60257;42.638;23.376;2022-12-10T05:16:10;10.67;10.67;7.00
72307;PMS5003;60257;42.638;23.376;2022-12-10T05:18:37;19.33;18.67;11.00
72307;PMS5003;60257;42.638;23.376;2022-12-10T05:21:03;19.33;15.00;10.00
72307;PMS5003;60257;42.638;23.376;2022-12-10T05:23:32;21.67;21.67;13.67
72307;PMS5003;60257;42.638;23.376;2022-12-10T05:25:59;18.00;17.33;9.00
72307;PMS5003;60257;42.638;23.376;2022-12-10T05:28:26;22.33;20.00;11.00
72307;PMS5003;60257;42.638;23.376;2022-12-10T05:30:53;22.33;18.33;11.67
72307;PMS5003;60257;42.638;23.376;2022-12-10T05:33:18;23.33;22.67;13.00
72307;PMS5003;60257;42.638;23.376;2022-12-10T05:35:51;16.33;15.33;8.00
72307;PMS5003;60257;42.638;23.376;2022-12-10T05:38:27;17.00;17.00;8.67
72307;PMS5003;60257;42.638;23.376;2022-12-10T05:40:55;17.67;17.67;10.00
72307;PMS5003;60257;42.638;23.376;2022-12-10T05:43:25;21.00;17.33;14.00
72307;PMS5003;60257;42.638;23.376;2022-12-10T05:45:50;22.00;21.00;14.00
72307;PMS5003;60257;42.638;23.376;2022-12-10T05:48:15;21.00;20.33;9.33
72307;PMS5003;60257;42.638;23.376;2022-12-10T05:50:41;26.33;23.00;14.00
72307;PMS5003;60257;42.638;23.376;2022-12-10T05:53:07;23.67;22.00;13.67
72307;PMS5003;60257;42.638;23.376;2022-12-10T05:55:33;19.33;19.33;12.67
72307;PMS5003;60257;42.638;23.376;2022-12-10T05:57:59;29.67;27.33;17.33
72307;PMS5003;60257;42.638;23.376;2022-12-10T06:00:25;30.33;28.67;18.00
72307;PMS5003;60257;42.638;23.376;2022-12-10T06:02:51;35.67;33.33;19.67
72307;PMS5003;60257;42.638;23.376;2022-12-10T06:05:17;38.33;35.00;20.67
72307;PMS5003;60257;42.638;23.376;2022-12-10T06:07:43;32.67;30.00;19.33
72307;PMS5003;60257;42.638;23.376;2022-12-10T06:10:09;29.33;27.00;17.67
72307;PMS5003;60257;42.638;23.376;2022-12-10T06:12:35;42.00;35.33;20.00
72307;PMS5003;60257;42.638;23.376;2022-12-10T06:15:01;24.67;24.33;14.33
72307;PMS5003;60257;42.638;23.376;2022-12-10T06:17:27;21.33;20.67;11.67
72307;PMS5003;60257;42.638;23.376;2022-12-10T06:19:53;24.00;21.33;13.00
72307;PMS5003;60257;42.638;23.376;2022-12-10T06:22:18;22.00;22.00;11.67
72307;PMS5003;60257;42.638;23.376;2022-12-10T06:24:44;23.00;21.00;13.33
72307;PMS5003;60257;42.638;23.376;2022-12-10T06:27:09;27.00;22.67;12.00
72307;PMS5003;60257;42.638;23.376;2022-12-10T06:29:35;29.00;27.67;17.00
72307;PMS5003;60257;42.638;23.376;2022-12-10T06:32:00;27.33;24.00;12.33
72307;PMS5003;60257;42.638;23.376;2022-12-10T06:34:26;26.67;26.33;17.00
72307;PMS5003;60257;42.638;23.376;2022-12-10T06:36:51;26.00;24.33;15.33
72307;PMS5003;60257;42.638;23.376;2022-12-10T06:39:17;23.00;23.00;14.00
72307;PMS5003;60257;42.638;23.376;2022-12-10T06:41:42;28.33;27.67;15.33
72307;PMS5003;60257;42.638;23.376;2022-12-10T06:44:09;25.67;21.00;11.00
72307;PMS5003;60257;42.638;23.376;2022-12-10T06:46:35;25.33;23.67;15.67
72307;PMS5003;60257;42.638;23.376;2022-12-10T06:49:02;32.00;28.67;16.33
72307;PMS5003;60257;42.638;23.376;2022-12-10T06:51:28;18.33;18.33;11.00
72307;PMS5003;60257;42.638;23.376;2022-12-10T06:53:54;22.33;21.67;14.00
72307;PMS5003;60257;42.638;23.376;2022-12-10T06:56:20;34.00;33.00;21.33
72307;PMS5003;60257;42.638;23.376;2022-12-10T06:58:46;18.00;18.00;10.00
72307;PMS5003;60257;42.638;23.376;2022-12-10T07:01:16;35.00;29.00;19.33
72307;PMS5003;60257;42.638;23.376;2022-12-10T07:03:47;29.00;27.67;16.00
72307;PMS5003;60257;42.638;23.376;2022-12-10T07:06:16;31.00;29.00;16.00
72307;PMS5003;60257;42.638;23.376;2022-12-10T07:08:44;28.67;26.00;17.00
72307;PMS5003;60257;42.638;23.376;2022-12-10T07:11:13;30.00;28.33;15.00
72307;PMS5003;60257;42.638;23.376;2022-12-10T07:13:41;27.00;26.00;16.33
72307;PMS5003;60257;42.638;23.376;2022-12-10T07:16:24;32.33;25.67;18.00
72307;PMS5003;60257;42.638;23.376;2022-12-10T07:18:52;32.33;30.00;20.33
72307;PMS5003;60257;42.638;23.376;2022-12-10T07:21:22;27.67;27.67;18.00
72307;PMS5003;60257;42.638;23.376;2022-12-10T07:23:50;29.33;29.33;20.00
72307;PMS5003;60257;42.638;23.376;2022-12-10T07:26:16;28.67;27.67;17.33
72307;PMS5003;60257;42.638;23.376;2022-12-10T07:28:42;29.33;27.33;17.00
72307;PMS5003;60257;42.638;23.376;2022-12-10T07:31:08;34.67;33.67;21.33
72307;PMS5003;60257;42.638;23.376;2022-12-10T07:33:35;24.67;24.67;17.00
72307;PMS5003;60257;42.638;23.376;2022-12-10T07:36:07;30.67;29.67;18.00
72307;PMS5003;60257;42.638;23.376;2022-12-10T07:38:34;33.33;28.00;15.33
72307;PMS5003;60257;42.638;23.376;2022-12-10T07:41:03;28.33;27.00;16.33
72307;PMS5003;60257;42.638;23.376;2022-12-10T07:43:33;36.00;29.00;17.00
72307;PMS5003;60257;42.638;23.376;2022-12-10T07:46:07;32.67;30.00;18.67
72307;PMS5003;60257;42.638;23.376;2022-12-10T07:48:38;39.33;34.67;22.00
72307;PMS5003;60257;42.638;23.376;2022-12-10T07:51:05;35.00;31.33;21.00
72307;PMS5003;60257;42.638;23.376;2022-12-10T07:53:32;39.00;35.00;23.00
72307;PMS5003;60257;42.638;23.376;2022-12-10T07:55:58;35.67;30.00;18.00
72307;PMS5003;60257;42.638;23.376;2022-12-10T07:58:23;32.33;30.00;17.00
72307;PMS5003;60257;42.638;23.376;2022-12-10T08:00:49;40.33;37.33;23.00
72307;PMS5003;60257;42.638;23.376;2022-12-10T08:03:15;36.33;29.00;17.67
72307;PMS5003;60257;42.638;23.376;2022-12-10T08:05:40;35.00;30.67;20.33
72307;PMS5003;60257;42.638;23.376;2022-12-10T08:08:06;35.33;31.67;21.33
72307;PMS5003;60257;42.638;23.376;2022-12-10T08:10:34;31.00;29.67;18.33
72307;PMS5003;60257;42.638;23.376;2022-12-10T08:13:01;23.00;20.00;17.00
72307;PMS5003;60257;42.638;23.376;2022-12-10T08:15:26;31.67;30.00;19.00
72307;PMS5003;60257;42.638;23.376;2022-12-10T08:17:53;42.33;37.33;21.33
72307;PMS5003;60257;42.638;23.376;2022-12-10T08:20:19;44.00;38.33;24.00
72307;PMS5003;60257;42.638;23.376;2022-12-10T08:22:44;36.33;32.33;21.00
72307;PMS5003;60257;42.638;23.376;2022-12-10T08:25:10;24.00;20.00;16.33
72307;PMS5003;60257;42.638;23.376;2022-12-10T08:27:36;42.67;37.00;23.00
72307;PMS5003;60257;42.638;23.376;2022-12-10T08:30:01;44.33;37.33;23.00
72307;PMS5003;60257;42.638;23.376;2022-12-10T08:32:27;32.33;32.00;23.00
72307;PMS5003;60257;42.638;23.376;2022-12-10T08:34:52;40.33;34.33;21.00
72307;PMS5003;60257;42.638;23.376;2022-12-10T08:37:18;40.67;35.00;23.00
72307;PMS5003;60257;42.638;23.376;2022-12-10T08:39:43;37.67;35.33;22.33
72307;PMS5003;60257;42.638;23.376;2022-12-10T08:42:08;51.00;41.00;25.00
72307;PMS5003;60257;42.638;23.376;2022-12-10T08:44:34;31.33;31.33;20.67
72307;PMS5003;60257;42.638;23.376;2022-12-10T08:47:00;45.00;40.33;25.00
72307;PMS5003;60257;42.638;23.376;2022-12-10T08:49:25;48.00;41.33;27.00
72307;PMS5003;60257;42.638;23.376;2022-12-10T08:51:50;47.00;39.33;26.00
72307;PMS5003;60257;42.638;23.376;2022-12-10T08:54:16;49.67;40.00;25.00
72307;PMS5003;60257;42.638;23.376;2022-12-10T08:56:41;58.33;47.00;30.33
72307;PMS5003;60257;42.638;23.376;2022-12-10T08:59:07;52.67;43.00;27.00
72307;PMS5003;60257;42.638;23.376;2022-12-10T09:01:32;40.67;37.67;24.00
72307;PMS5003;60257;42.638;23.376;2022-12-10T09:03:58;39.33;36.33;25.00
72307;PMS5003;60257;42.638;23.376;2022-12-10T09:06:24;46.33;38.67;25.00
72307;PMS5003;60257;42.638;23.376;2022-12-10T09:08:50;34.00;28.33;18.00
72307;PMS5003;60257;42.638;23.376;2022-12-10T09:11:17;42.00;36.00;22.33
72307;PMS5003;60257;42.638;23.376;2022-12-10T09:13:45;39.67;34.67;20.67
72307;PMS5003;60257;42.638;23.376;2022-12-10T09:16:11;43.67;41.67;23.67
72307;PMS5003;60257;42.638;23.376;2022-12-10T09:18:37;51.33;40.67;25.67
72307;PMS5003;60257;42.638;23.376;2022-12-10T09:21:06;34.00;32.67;18.33
72307;PMS5003;60257;42.638;23.376;2022-12-10T09:23:33;43.67;36.33;24.00
72307;PMS5003;60257;42.638;23.376;2022-12-10T09:25:59;42.67;38.00;24.33
72307;PMS5003;60257;42.638;23.376;2022-12-10T09:28:24;44.00;38.00;23.33
72307;PMS5003;60257;42.638;23.376;2022-12-10T09:30:57;58.00;48.67;29.33
72307;PMS5003;60257;42.638;23.376;2022-12-10T09:33:24;45.67;40.00;26.00
72307;PMS5003;60257;42.638;23.376;2022-12-10T09:35:50;50.33;41.33;27.67
72307;PMS5003;60257;42.638;23.376;2022-12-10T09:38:16;50.00;42.33;27.00
72307;PMS5003;60257;42.638;23.376;2022-12-10T09:40:43;46.67;43.67;24.33
72307;PMS5003;60257;42.638;23.376;2022-12-10T09:51:21;39.33;36.67;22.33
72307;PMS5003;60257;42.638;23.376;2022-12-10T09:53:49;46.67;41.00;25.00
72307;PMS5003;60257;42.638;23.376;2022-12-10T09:56:26;47.67;40.67;26.00
72307;PMS5003;60257;42.638;23.376;2022-12-10T09:58:57;54.33;43.00;27.00
72307;PMS5003;60257;42.638;23.376;2022-12-10T10:01:27;44.00;38.00;27.00
72307;PMS5003;60257;42.638;23.376;2022-12-10T10:03:56;46.67;42.33;27.00
72307;PMS5003;60257;42.638;23.376;2022-12-10T10:06:21;46.00;39.67;25.67
72307;PMS5003;60257;42.638;23.376;2022-12-10T10:08:51;37.67;36.67;23.00
72307;PMS5003;60257;42.638;23.376;2022-12-10T10:11:21;39.00;37.67;23.00
72307;PMS5003;60257;42.638;23.376;2022-12-10T10:19:05;43.00;36.33;22.67
72307;PMS5003;60257;42.638;23.376;2022-12-10T10:21:40;17.67;17.67;2.00
72307;PMS5003;60257;42.638;23.376;2022-12-10T10:24:12;48.67;41.00;26.00
72307;PMS5003;60257;42.638;23.376;2022-12-10T10:26:52;46.00;39.33;23.33
72307;PMS5003;60257;42.638;23.376;2022-12-10T10:29:23;44.00;38.33;23.33
72307;PMS5003;60257;42.638;23.376;2022-12-10T10:32:10;43.33;38.00;23.67
72307;PMS5003;60257;42.638;23.376;2022-12-10T10:34:40;42.00;35.00;22.00
72307;PMS5003;60257;42.638;23.376;2022-12-10T10:37:06;41.67;36.00;23.33
72307;PMS5003;60257;42.638;23.376;2022-12-10T10:39:36;50.33;42.33;28.00
72307;PMS5003;60257;42.638;23.376;2022-12-10T10:42:07;45.33;39.00;24.67
72307;PMS5003;60257;42.638;23.376;2022-12-10T10:44:35;43.00;39.00;24.00
72307;PMS5003;60257;42.638;23.376;2022-12-10T10:47:02;40.67;36.33;24.00
72307;PMS5003;60257;42.638;23.376;2022-12-10T10:49:50;24.33;21.67;12.00
72307;PMS5003;60257;42.638;23.376;2022-12-10T10:52:16;45.33;35.67;22.33
72307;PMS5003;60257;42.638;23.376;2022-12-10T10:54:43;34.67;33.67;22.33
72307;PMS5003;60257;42.638;23.376;2022-12-10T10:59:48;37.67;33.67;21.00
72307;PMS5003;60257;42.638;23.376;2022-12-10T11:02:20;31.67;28.67;16.00
72307;PMS5003;60257;42.638;23.376;2022-12-10T11:04:52;28.33;28.33;17.00
72307;PMS5003;60257;42.638;23.376;2022-12-10T11:07:33;30.33;29.33;20.33
72307;PMS5003;60257;42.638;23.376;2022-12-10T11:10:24;29.67;28.00;20.00
72307;PMS5003;60257;42.638;23.376;2022-12-10T11:15:39;36.00;32.67;19.33
72307;PMS5003;60257;42.638;23.376;2022-12-10T11:21:18;35.67;32.67;20.00
72307;PMS5003;60257;42.638;23.376;2022-12-10T11:23:48;43.00;36.67;23.67
72307;PMS5003;60257;42.638;23.376;2022-12-10T11:26:40;42.00;38.00;24.67
72307;PMS5003;60257;42.638;23.376;2022-12-10T11:37:59;49.33;40.00;24.00
72307;PMS5003;60257;42.638;23.376;2022-12-10T11:42:54;36.00;31.00;23.67
72307;PMS5003;60257;42.638;23.376;2022-12-10T11:50:48;32.67;29.67;15.00
72307;PMS5003;60257;42.638;23.376;2022-12-10T11:58:44;43.33;36.67;23.67
72307;PMS5003;60257;42.638;23.376;2022-12-10T12:01:23;37.33;33.33;20.33
72307;PMS5003;60257;42.638;23.376;2022-12-10T12:06:44;39.00;32.00;21.00
72307;PMS5003;60257;42.638;23.376;2022-12-10T12:15:00;37.00;33.33;19.67
72307;PMS5003;60257;42.638;23.376;2022-12-10T12:17:30;37.33;32.67;20.00
72307;PMS5003;60257;42.638;23.376;2022-12-10T12:20:04;34.00;30.67;19.00
72307;PMS5003;60257;42.638;23.376;2022-12-10T12:22:44;37.33;31.67;19.00
72307;PMS5003;60257;42.638;23.376;2022-12-10T12:25:26;25.33;23.33;15.33
72307;PMS5003;60257;42.638;23.376;2022-12-10T12:28:08;28.00;26.00;16.33
72307;PMS5003;60257;42.638;23.376;2022-12-10T12:30:36;25.33;23.00;17.00
72307;PMS5003;60257;42.638;23.376;2022-12-10T12:36:21;29.00;27.67;19.33
72307;PMS5003;60257;42.638;23.376;2022-12-10T12:44:13;29.00;26.33;16.33
72307;PMS5003;60257;42.638;23.376;2022-12-10T12:46:46;14.50;14.50;9.00
72307;PMS5003;60257;42.638;23.376;2022-12-10T12:49:19;24.00;23.75;15.00
72307;PMS5003;60257;42.638;23.376;2022-12-10T12:51:59;22.00;18.25;12.00
72307;PMS5003;60257;42.638;23.376;2022-12-10T12:54:31;26.33;23.67;14.00
72307;PMS5003;60257;42.638;23.376;2022-12-10T12:57:14;25.00;25.00;16.33
72307;PMS5003;60257;42.638;23.376;2022-12-10T13:05:12;27.00;24.67;13.67
72307;PMS5003;60257;42.638;23.376;2022-12-10T13:14:01;21.00;20.00;14.00
72307;PMS5003;60257;42.638;23.376;2022-12-10T13:32:14;29.00;24.67;17.00
72307;PMS5003;60257;42.638;23.376;2022-12-10T13:48:55;36.00;32.00;19.00
72307;PMS5003;60257;42.638;23.376;2022-12-10T13:53:50;37.67;32.33;20.00
72307;PMS5003;60257;42.638;23.376;2022-12-10T13:56:45;35.33;33.00;19.33
72307;PMS5003;60257;42.638;23.376;2022-12-10T13:59:29;18.67;18.33;12.33
72307;PMS5003;60257;42.638;23.376;2022-12-10T14:07:39;30.00;28.00;18.00
72307;PMS5003;60257;42.638;23.376;2022-12-10T14:10:13;27.00;24.00;17.00
72307;PMS5003;60257;42.638;23.376;2022-12-10T14:12:42;26.33;25.00;17.67
72307;PMS5003;60257;42.638;23.376;2022-12-10T14:15:20;35.67;31.00;19.00
72307;PMS5003;60257;42.638;23.376;2022-12-10T14:17:49;35.00;30.33;19.67
72307;PMS5003;60257;42.638;23.376;2022-12-10T14:20:22;54.00;43.00;27.00
72307;PMS5003;60257;42.638;23.376;2022-12-10T14:22:50;39.33;34.67;22.33
72307;PMS5003;60257;42.638;23.376;2022-12-10T14:25:43;25.67;22.67;13.00
72307;PMS5003;60257;42.638;23.376;2022-12-10T14:28:12;32.33;29.00;19.00
72307;PMS5003;60257;42.638;23.376;2022-12-10T14:30:42;25.67;24.00;16.33
72307;PMS5003;60257;42.638;23.376;2022-12-10T14:33:14;29.00;25.33;16.33
72307;PMS5003;60257;42.638;23.376;2022-12-10T14:35:46;29.33;28.67;18.67
72307;PMS5003;60257;42.638;23.376;2022-12-10T14:38:20;32.67;30.00;21.00
72307;PMS5003;60257;42.638;23.376;2022-12-10T14:40:52;43.00;37.33;22.00
72307;PMS5003;60257;42.638;23.376;2022-12-10T14:43:29;33.00;33.00;22.00
72307;PMS5003;60257;42.638;23.376;2022-12-10T14:46:02;44.67;36.00;22.67
72307;PMS5003;60257;42.638;23.376;2022-12-10T14:48:29;42.00;35.67;22.00
72307;PMS5003;60257;42.638;23.376;2022-12-10T14:50:56;36.67;31.00;20.00
72307;PMS5003;60257;42.638;23.376;2022-12-10T14:53:28;34.67;32.33;21.00
72307;PMS5003;60257;42.638;23.376;2022-12-10T14:55:55;45.67;40.33;27.33
72307;PMS5003;60257;42.638;23.376;2022-12-10T14:58:29;45.67;38.33;26.00
72307;PMS5003;60257;42.638;23.376;2022-12-10T15:01:02;36.00;33.67;22.33
72307;PMS5003;60257;42.638;23.376;2022-12-10T15:03:29;42.67;37.00;25.00
72307;PMS5003;60257;42.638;23.376;2022-12-10T15:06:07;52.00;43.00;26.00
72307;PMS5003;60257;42.638;23.376;2022-12-10T15:08:34;61.67;51.00;33.67
72307;PMS5003;60257;42.638;23.376;2022-12-10T15:11:01;66.00;53.00;34.33
72307;PMS5003;60257;42.638;23.376;2022-12-10T15:13:40;50.00;42.00;26.00
72307;PMS5003;60257;42.638;23.376;2022-12-10T15:16:16;48.33;37.33;25.33
72307;PMS5003;60257;42.638;23.376;2022-12-10T15:19:38;34.33;30.67;23.67
72307;PMS5003;60257;42.638;23.376;2022-12-10T15:22:20;35.33;33.00;23.00
72307;PMS5003;60257;42.638;23.376;2022-12-10T15:24:47;35.67;33.67;21.00
72307;PMS5003;60257;42.638;23.376;2022-12-10T15:27:17;48.67;38.33;25.67
72307;PMS5003;60257;42.638;23.376;2022-12-10T15:29:45;53.67;44.33;27.00
72307;PMS5003;60257;42.638;23.376;2022-12-10T15:32:15;52.33;45.00;28.67
72307;PMS5003;60257;42.638;23.376;2022-12-10T15:34:58;45.33;40.33;26.00
72307;PMS5003;60257;42.638;23.376;2022-12-10T15:37:27;45.33;38.67;26.00
72307;PMS5003;60257;42.638;23.376;2022-12-10T15:40:00;50.33;41.33;26.33
72307;PMS5003;60257;42.638;23.376;2022-12-10T15:45:10;45.33;37.00;24.67
72307;PMS5003;60257;42.638;23.376;2022-12-10T15:47:41;37.33;35.00;22.33
72307;PMS5003;60257;42.638;23.376;2022-12-10T15:50:08;41.67;37.67;22.33
72307;PMS5003;60257;42.638;23.376;2022-12-10T15:52:34;36.00;34.00;22.00
72307;PMS5003;60257;42.638;23.376;2022-12-10T15:54:59;39.67;34.00;22.67
72307;PMS5003;60257;42.638;23.376;2022-12-10T15:57:26;36.00;32.67;20.67
72307;PMS5003;60257;42.638;23.376;2022-12-10T15:59:54;35.00;32.00;21.33
72307;PMS5003;60257;42.638;23.376;2022-12-10T16:02:26;36.67;32.67;21.00
72307;PMS5003;60257;42.638;23.376;2022-12-10T16:05:14;35.33;32.67;18.33